ADDS METAR Data INFO
IDs: Format: Raw Decoded Include TAF

Data at: 0856 UTC 16 Jul 2018

METAR for:PAOU (Nelson Lagoon Arpt, AK, US)
Text:PAOU 160756Z AUTO 24004KT 10SM FEW030 SCT038 BKN110 09/07 A3014 RMK AO2 SLP207 T00890067
Temperature: 8.9°C ( 48°F)
Dewpoint: 6.7°C ( 44°F) [RH = 86%]
Pressure (altimeter):30.14 inches Hg (1020.7 mb) [Sea level pressure: 1020.7 mb]
Winds:from the WSW (240 degrees) at 5 MPH (4 knots; 2.1 m/s)
Visibility:10 or more sm (16+ km)
Ceiling:11000 feet AGL
Clouds: few clouds at 3000 feet AGL, scattered clouds at 3800 feet AGL, broken clouds at 11000 feet AGL
QC Flag:automated observation with no human augmentation
Text:PAOU 160656Z AUTO 30003KT 10SM CLR 09/07 A3014 RMK AO2 SLP206 T00890067
Temperature: 8.9°C ( 48°F)
Dewpoint: 6.7°C ( 44°F) [RH = 86%]
Pressure (altimeter):30.14 inches Hg (1020.7 mb) [Sea level pressure: 1020.6 mb]
Winds:from the WNW (300 degrees) at 3 MPH (3 knots; 1.5 m/s)
Visibility:10 or more sm (16+ km)
Ceiling:at least 12,000 feet AGL
Clouds:sky clear below 12,000 feet AGL
QC Flag:automated observation with no human augmentation
Text:PAOU 160624Z AUTO 32003KT 10SM SCT010 09/07 A3013 RMK AO2
Temperature: 9.0°C ( 48°F)
Dewpoint: 7.0°C ( 45°F) [RH = 87%]
Pressure (altimeter):30.13 inches Hg (1020.4 mb)
Winds:from the NW (320 degrees) at 3 MPH (3 knots; 1.5 m/s)
Visibility:10 or more sm (16+ km)
Ceiling:at least 12,000 feet AGL
Clouds: scattered clouds at 1000 feet AGL
QC Flag:automated observation with no human augmentation
Text:PAOU 160607Z AUTO 30004KT 10SM BKN010 09/07 A3014 RMK AO2
Temperature: 9.0°C ( 48°F)
Dewpoint: 7.0°C ( 45°F) [RH = 87%]
Pressure (altimeter):30.14 inches Hg (1020.7 mb)
Winds:from the WNW (300 degrees) at 5 MPH (4 knots; 2.1 m/s)
Visibility:10 or more sm (16+ km)
Ceiling:1000 feet AGL
Clouds: broken clouds at 1000 feet AGL
QC Flag:automated observation with no human augmentation
Text:PAOU 160556Z AUTO 31004KT 10SM SCT010 09/07 A3013 RMK AO2 SLP204 T00890067 10106 20089 53005
Temperature: 8.9°C ( 48°F)
Dewpoint: 6.7°C ( 44°F) [RH = 86%]
Pressure (altimeter):30.13 inches Hg (1020.4 mb) [Sea level pressure: 1020.4 mb]
Winds:from the NW (310 degrees) at 5 MPH (4 knots; 2.1 m/s)
Visibility:10 or more sm (16+ km)
Ceiling:at least 12,000 feet AGL
Clouds: scattered clouds at 1000 feet AGL
QC Flag:automated observation with no human augmentation
Text:PAOU 160533Z AUTO 32005KT 10SM SCT010 09/07 A3013 RMK AO2
Temperature: 9.0°C ( 48°F)
Dewpoint: 7.0°C ( 45°F) [RH = 87%]
Pressure (altimeter):30.13 inches Hg (1020.4 mb)
Winds:from the NW (320 degrees) at 6 MPH (5 knots; 2.6 m/s)
Visibility:10 or more sm (16+ km)
Ceiling:at least 12,000 feet AGL
Clouds: scattered clouds at 1000 feet AGL
QC Flag:automated observation with no human augmentation
Text:PAOU 160456Z AUTO 33007KT 10SM OVC010 09/07 A3012 RMK AO2 SLP201 T00940067
Temperature: 9.4°C ( 49°F)
Dewpoint: 6.7°C ( 44°F) [RH = 83%]
Pressure (altimeter):30.12 inches Hg (1020.1 mb) [Sea level pressure: 1020.1 mb]
Winds:from the NNW (330 degrees) at 8 MPH (7 knots; 3.6 m/s)
Visibility:10 or more sm (16+ km)
Ceiling:1000 feet AGL
Clouds: overcast cloud deck at 1000 feet AGL
QC Flag:automated observation with no human augmentation
Text:PAOU 160356Z AUTO 31009KT 10SM BKN010 09/07 A3012 RMK AO2 SLP200 T00940067
Temperature: 9.4°C ( 49°F)
Dewpoint: 6.7°C ( 44°F) [RH = 83%]
Pressure (altimeter):30.12 inches Hg (1020.1 mb) [Sea level pressure: 1020.0 mb]
Winds:from the NW (310 degrees) at 10 MPH (9 knots; 4.6 m/s)
Visibility:10 or more sm (16+ km)
Ceiling:1000 feet AGL
Clouds: broken clouds at 1000 feet AGL
QC Flag:automated observation with no human augmentation

TAF for:PAOU (Nelson Lagoon Arpt, AK, US)
Text:No data found